Time;durP1;ratioP1;P1;durP2;ratioP2;P2;SDS_P1;SDS_P2;PMS_P1;PMS_P2;Temp;Humidity;BMP_temperature;BMP_pressure;BME280_temperature;BME280_humidity;BME280_pressure;Samples;Min_cycle;Max_cycle;Signal;HPM_P1;HPM_P2
2022/01/12 00:01:09;;;;;;;28.90;11.43;;;;;;;-148.16;100.00;58328.31;5091468;28;20044;-60
2022/01/12 00:03:55;;;;;;;28.80;11.70;;;;;;;-148.16;100.00;58328.31;5091787;28;20052;-61
2022/01/12 00:06:41;;;;;;;25.02;11.07;;;;;;;-148.16;100.00;58328.31;5082384;28;20036;-62
2022/01/12 00:09:27;;;;;;;30.67;11.23;;;;;;;-148.16;100.00;58328.31;5091643;28;20044;-63
2022/01/12 00:12:13;;;;;;;28.95;11.90;;;;;;;-148.16;100.00;58328.31;5075840;28;20051;-60
2022/01/12 00:14:59;;;;;;;32.65;12.43;;;;;;;-148.16;100.00;58328.31;5090995;28;20048;-61
2022/01/12 00:17:45;;;;;;;39.28;14.18;;;;;;;-148.16;100.00;58328.31;5091179;28;20044;-60
2022/01/12 00:20:31;;;;;;;29.90;11.98;;;;;;;-148.16;100.00;58328.31;5091210;28;20048;-60
2022/01/12 00:23:17;;;;;;;35.75;14.57;;;;;;;-148.16;100.00;58328.31;5091318;28;20048;-59
2022/01/12 00:26:08;;;;;;;36.85;14.63;;;;;;;-148.16;100.00;58328.31;5075991;28;20048;-60
2022/01/12 00:35:10;;;;;;;35.50;13.30;;;;;;;-148.16;100.00;58328.31;5097426;28;20048;-61
2022/01/12 00:37:56;;;;;;;33.00;12.68;;;;;;;-148.16;100.00;58328.31;5068663;28;20048;-62
2022/01/12 00:40:44;;;;;;;29.60;11.68;;;;;;;-148.16;100.00;58328.31;5071880;28;20036;-63
2022/01/12 00:43:33;;;;;;;33.22;12.43;;;;;;;-148.16;100.00;58328.31;5070481;28;20044;-67
2022/01/12 00:46:19;;;;;;;28.42;12.60;;;;;;;-148.16;100.00;58328.31;5070567;28;20040;-61
2022/01/12 00:49:05;;;;;;;31.50;12.63;;;;;;;-148.16;100.00;58328.31;5069955;28;20247;-60
2022/01/12 00:51:54;;;;;;;27.77;10.50;;;;;;;-148.16;100.00;58328.31;5071028;28;20392;-60
2022/01/12 00:54:40;;;;;;;25.10;11.25;;;;;;;-148.16;100.00;58328.31;5070253;28;20084;-62
2022/01/12 00:57:26;;;;;;;28.20;10.93;;;;;;;-148.16;100.00;58328.31;5055577;28;20139;-60
2022/01/12 01:00:12;;;;;;;28.92;10.25;;;;;;;-148.16;100.00;58328.31;5070980;28;20504;-60
2022/01/12 01:02:59;;;;;;;25.48;10.40;;;;;;;-148.16;100.00;58328.31;5071199;28;20400;-60
2022/01/12 01:05:44;;;;;;;28.70;10.68;;;;;;;-148.16;100.00;58328.31;5056676;28;20040;-60
2022/01/12 01:08:30;;;;;;;25.45;11.30;;;;;;;-148.16;100.00;58328.31;5056695;28;20048;-60
2022/01/12 01:11:17;;;;;;;23.17;9.60;;;;;;;-148.16;100.00;58328.31;5071418;28;20045;-60
2022/01/12 01:14:14;;;;;;;25.98;10.82;;;;;;;-148.16;100.00;58328.31;5056263;28;20056;-60
2022/01/12 01:26:23;;;;;;;23.23;10.55;;;;;;;-148.16;100.00;58328.31;5075205;28;20047;-61
2022/01/12 01:29:10;;;;;;;30.00;11.80;;;;;;;-148.16;100.00;58328.31;5075807;28;20052;-60
2022/01/12 01:31:57;;;;;;;27.52;10.43;;;;;;;-148.16;100.00;58328.31;5089747;28;20052;-60
2022/01/12 01:34:47;;;;;;;29.25;10.20;;;;;;;-148.16;100.00;58328.31;5075579;28;20448;-60
2022/01/12 01:37:34;;;;;;;23.73;8.82;;;;;;;-148.16;100.00;58328.31;5075961;28;20371;-60
2022/01/12 01:40:20;;;;;;;24.83;9.98;;;;;;;-148.16;100.00;58328.31;5091439;28;20395;-59
2022/01/12 01:55:06;;;;;;;29.95;9.88;;;;;;;-148.16;100.00;58328.31;5090975;28;20040;-61
2022/01/12 01:57:52;;;;;;;27.05;10.25;;;;;;;-148.16;100.00;58328.31;5075642;28;20411;-62
2022/01/12 02:00:40;;;;;;;21.20;8.95;;;;;;;-148.16;100.00;58328.31;5077717;28;20044;-60
2022/01/12 02:03:31;;;;;;;27.15;9.93;;;;;;;-148.16;100.00;58328.31;5066019;28;20040;-60
2022/01/12 02:06:22;;;;;;;27.40;11.63;;;;;;;-148.16;100.00;58328.31;5079409;28;20044;-60
2022/01/12 02:09:08;;;;;;;36.53;12.70;;;;;;;-148.16;100.00;58328.31;5084968;28;20494;-62
2022/01/12 02:12:12;;;;;;;28.85;10.25;;;;;;;-148.16;100.00;58328.31;5079430;28;20499;-61
2022/01/12 02:15:01;;;;;;;30.00;11.48;;;;;;;-148.16;100.00;58328.31;5065111;28;20052;-64
2022/01/12 02:18:06;;;;;;;30.20;11.48;;;;;;;-148.16;100.00;58328.31;5094858;28;20470;-60
2022/01/12 02:36:22;;;;;;;27.63;10.68;;;;;;;-148.16;100.00;58328.31;5090482;28;20052;-60
2022/01/12 02:42:16;;;;;;;29.13;12.43;;;;;;;-148.16;100.00;58328.31;5078820;28;20052;-60
2022/01/12 02:54:13;;;;;;;30.67;11.57;;;;;;;-148.16;100.00;58328.31;5078535;28;20040;-59
2022/01/12 02:56:59;;;;;;;26.52;8.60;;;;;;;-148.16;100.00;58328.31;5078283;28;20487;-64
2022/01/12 03:02:50;;;;;;;26.55;10.00;;;;;;;-148.16;100.00;58328.31;5070564;28;20044;-64
2022/01/12 03:05:46;;;;;;;19.83;7.82;;;;;;;-148.16;100.00;58328.31;5064532;28;20044;-61
2022/01/12 03:08:37;;;;;;;25.63;9.45;;;;;;;-148.16;100.00;58328.31;5078367;28;20052;-62
2022/01/12 03:11:24;;;;;;;28.60;10.95;;;;;;;-148.16;100.00;58328.31;5077512;28;20048;-61
2022/01/12 03:14:12;;;;;;;26.73;9.85;;;;;;;-148.16;100.00;58328.31;5091809;28;20047;-62
2022/01/12 03:16:59;;;;;;;27.42;9.63;;;;;;;-148.16;100.00;58328.31;5092700;28;20048;-60
2022/01/12 03:19:48;;;;;;;17.95;7.88;;;;;;;-148.16;100.00;58328.31;5078537;28;20056;-61
2022/01/12 03:22:34;;;;;;;22.27;8.25;;;;;;;-148.16;100.00;58328.31;5078308;28;20048;-60
2022/01/12 03:25:20;;;;;;;20.02;8.80;;;;;;;-148.16;100.00;58328.31;5093260;28;20056;-62
2022/01/12 03:28:07;;;;;;;22.92;11.23;;;;;;;-148.16;100.00;58328.31;5077865;28;20040;-60
2022/01/12 03:31:06;;;;;;;22.45;9.52;;;;;;;-148.16;100.00;58328.31;5077620;28;20048;-60
2022/01/12 03:36:54;;;;;;;25.65;9.23;;;;;;;-148.16;100.00;58328.31;5078106;28;20044;-61
2022/01/12 03:39:41;;;;;;;23.60;9.32;;;;;;;-148.16;100.00;58328.31;5092524;28;20040;-60
2022/01/12 03:42:27;;;;;;;23.55;9.48;;;;;;;-148.16;100.00;58328.31;5063411;28;20055;-59
2022/01/12 03:45:14;;;;;;;21.92;9.20;;;;;;;-148.16;100.00;58328.31;5092933;28;20052;-62
2022/01/12 03:48:00;;;;;;;27.23;11.45;;;;;;;-148.16;100.00;58328.31;5093096;28;20032;-60
2022/01/12 03:50:48;;;;;;;25.25;10.23;;;;;;;-148.16;100.00;58328.31;5077514;28;20483;-62
2022/01/12 03:53:35;;;;;;;26.48;10.57;;;;;;;-148.16;100.00;58328.31;5051917;28;20040;-60
2022/01/12 03:56:21;;;;;;;23.30;9.05;;;;;;;-148.16;100.00;58328.31;5057605;28;20040;-62
2022/01/12 03:59:08;;;;;;;25.95;9.00;;;;;;;-148.16;100.00;58328.31;5076085;28;20039;-62
2022/01/12 04:01:54;;;;;;;31.52;10.88;;;;;;;-148.16;100.00;58328.31;5070704;28;20040;-59
2022/01/12 04:05:05;;;;;;;23.30;8.75;;;;;;;-148.16;100.00;58328.31;5069821;28;20048;-60
2022/01/12 04:10:55;;;;;;;24.17;8.60;;;;;;;-148.16;100.00;58328.31;5061991;28;20040;-61
2022/01/12 04:13:43;;;;;;;25.95;10.30;;;;;;;-148.16;100.00;58328.31;5091830;28;20029;-60
2022/01/12 04:16:29;;;;;;;23.85;9.60;;;;;;;-148.16;100.00;58328.31;5057796;28;20057;-62
2022/01/12 04:19:15;;;;;;;24.30;9.15;;;;;;;-148.16;100.00;58328.31;5065205;28;20044;-70
2022/01/12 04:22:18;;;;;;;26.80;10.32;;;;;;;-148.16;100.00;58328.31;5070502;28;20044;-61
2022/01/12 04:25:04;;;;;;;27.23;11.65;;;;;;;-148.16;100.00;58328.31;5056385;28;20048;-68
2022/01/12 04:27:50;;;;;;;33.15;12.05;;;;;;;-148.16;100.00;58328.31;5071846;28;20032;-68
2022/01/12 04:30:36;;;;;;;27.60;11.18;;;;;;;-148.16;100.00;58328.31;5084686;28;20492;-61
2022/01/12 04:33:22;;;;;;;24.65;9.80;;;;;;;-148.16;100.00;58328.31;5085631;28;20048;-62
2022/01/12 04:36:09;;;;;;;26.15;9.38;;;;;;;-148.16;100.00;58328.31;5073566;28;20044;-63
2022/01/12 04:38:55;;;;;;;22.30;8.93;;;;;;;-148.16;100.00;58328.31;5072364;28;20045;-66
2022/01/12 04:41:42;;;;;;;23.83;10.00;;;;;;;-148.16;100.00;58328.31;5043250;28;20049;-66
2022/01/12 04:44:27;;;;;;;28.90;9.65;;;;;;;-148.16;100.00;58328.31;5072485;28;20052;-70
2022/01/12 04:47:46;;;;;;;26.38;9.55;;;;;;;-148.16;100.00;58328.31;5056406;28;20459;-66
2022/01/12 04:50:24;;;;;;;23.48;9.38;;;;;;;-148.16;100.00;58328.31;5072279;28;20460;-67
2022/01/12 04:53:12;;;;;;;26.27;10.90;;;;;;;-148.16;100.00;58328.31;5057075;28;20052;-63
2022/01/12 04:55:58;;;;;;;33.35;13.20;;;;;;;-148.16;100.00;58328.31;5084614;28;20040;-62
2022/01/12 04:58:44;;;;;;;28.25;10.82;;;;;;;-148.16;100.00;58328.31;5048579;28;20404;-68
2022/01/12 05:01:35;;;;;;;23.05;9.90;;;;;;;-148.16;100.00;58328.31;5071863;28;20056;-68
2022/01/12 05:07:31;;;;;;;29.35;11.50;;;;;;;-148.16;100.00;58328.31;5062157;28;20495;-61
2022/01/12 05:13:13;;;;;;;30.05;12.23;;;;;;;-148.16;100.00;58328.31;5056462;28;20048;-67
2022/01/12 05:16:01;;;;;;;28.63;10.57;;;;;;;-148.16;100.00;58328.31;5056151;28;20045;-66
2022/01/12 05:18:49;;;;;;;29.15;10.65;;;;;;;-148.16;100.00;58328.31;5056932;28;20491;-65
2022/01/12 05:21:35;;;;;;;28.30;11.82;;;;;;;-148.16;100.00;58328.31;5084758;28;20132;-65
2022/01/12 05:24:21;;;;;;;23.38;10.63;;;;;;;-148.16;100.00;58328.31;5055833;28;20491;-67
2022/01/12 05:27:08;;;;;;;26.48;10.63;;;;;;;-148.16;100.00;58328.31;5056525;28;20045;-65
2022/01/12 05:29:54;;;;;;;34.85;12.10;;;;;;;-148.16;100.00;58328.31;5071394;28;20040;-40
2022/01/12 05:32:42;;;;;;;28.80;10.70;;;;;;;-148.16;100.00;58328.31;5063138;28;20041;-63
2022/01/12 05:35:34;;;;;;;26.42;9.50;;;;;;;-148.16;100.00;58328.31;5069749;28;20410;-63
2022/01/12 05:38:23;;;;;;;26.98;10.65;;;;;;;-148.16;100.00;58328.31;5066230;28;20059;-64
2022/01/12 05:41:09;;;;;;;24.95;8.35;;;;;;;-148.16;100.00;58328.31;5079426;28;20048;-64
2022/01/12 05:43:57;;;;;;;25.40;9.70;;;;;;;-148.16;100.00;58328.31;5079223;28;20040;-63
2022/01/12 05:46:44;;;;;;;27.05;10.85;;;;;;;-148.16;100.00;58328.31;5080598;28;20044;-63
2022/01/12 05:49:37;;;;;;;26.65;10.63;;;;;;;-148.16;100.00;58328.31;5070557;28;20139;-67
2022/01/12 05:52:30;;;;;;;28.98;11.30;;;;;;;-148.16;100.00;58328.31;5079968;28;20036;-62
2022/01/12 05:55:18;;;;;;;30.67;11.43;;;;;;;-148.16;100.00;58328.31;5095745;28;20044;-63
2022/01/12 05:58:05;;;;;;;24.52;10.18;;;;;;;-148.16;100.00;58328.31;5066576;28;20056;-63
2022/01/12 06:00:51;;;;;;;29.27;10.95;;;;;;;-148.16;100.00;58328.31;5080453;28;20044;-58
2022/01/12 06:03:37;;;;;;;24.40;9.48;;;;;;;-148.16;100.00;58328.31;5092741;28;20040;-61
2022/01/12 06:06:25;;;;;;;26.02;9.88;;;;;;;-148.16;100.00;58328.31;5052015;28;20049;-60
2022/01/12 06:09:12;;;;;;;22.52;8.75;;;;;;;-148.16;100.00;58328.31;5052252;28;20053;-59
2022/01/12 06:11:58;;;;;;;21.33;9.77;;;;;;;-148.16;100.00;58328.31;5052196;28;20052;-58
2022/01/12 06:14:44;;;;;;;22.15;9.15;;;;;;;-148.16;100.00;58328.31;5075274;28;20089;-59
2022/01/12 06:17:30;;;;;;;30.77;11.68;;;;;;;-148.16;100.00;58328.31;5059912;28;20040;-60
2022/01/12 06:20:16;;;;;;;22.23;9.30;;;;;;;-148.16;100.00;58328.31;5059945;28;20044;-59
2022/01/12 06:23:28;;;;;;;21.58;9.20;;;;;;;-148.16;100.00;58328.31;5064419;28;20411;-59
2022/01/12 06:26:16;;;;;;;20.98;8.82;;;;;;;-148.16;100.00;58328.31;5060056;28;20476;-59
2022/01/12 06:31:57;;;;;;;27.83;10.07;;;;;;;-148.16;100.00;58328.31;5074841;28;20041;-59
2022/01/12 06:34:45;;;;;;;26.95;9.68;;;;;;;-148.16;100.00;58328.31;5086586;28;20479;-60
2022/01/12 06:37:31;;;;;;;25.65;9.38;;;;;;;-148.16;100.00;58328.31;5081224;28;20052;-59
2022/01/12 06:40:18;;;;;;;24.00;8.85;;;;;;;-148.16;100.00;58328.31;5060751;28;20044;-63
2022/01/12 06:43:10;;;;;;;19.60;7.82;;;;;;;-148.16;100.00;58328.31;5059302;28;20040;-61
2022/01/12 06:45:56;;;;;;;25.60;9.98;;;;;;;-148.16;100.00;58328.31;5059401;28;20053;-59
2022/01/12 06:48:42;;;;;;;25.00;10.07;;;;;;;-148.16;100.00;58328.31;5081062;28;20032;-59
2022/01/12 06:51:28;;;;;;;25.65;8.10;;;;;;;-148.16;100.00;58328.31;5059636;28;20404;-59
2022/01/12 06:54:17;;;;;;;22.50;8.23;;;;;;;-148.16;100.00;58328.31;5059757;28;20045;-60
2022/01/12 06:57:03;;;;;;;25.08;9.38;;;;;;;-148.16;100.00;58328.31;5074610;28;20045;-58
2022/01/12 06:59:49;;;;;;;23.17;8.95;;;;;;;-148.16;100.00;58328.31;5045664;28;20048;-61
2022/01/12 07:02:37;;;;;;;21.08;8.48;;;;;;;-148.16;100.00;58328.31;5058889;28;20036;-60
2022/01/12 07:05:24;;;;;;;22.45;8.90;;;;;;;-148.16;100.00;58328.31;5059408;28;20040;-60
2022/01/12 07:08:09;;;;;;;19.25;7.28;;;;;;;-148.16;100.00;58328.31;5058664;28;20399;-60
2022/01/12 07:10:59;;;;;;;22.00;8.43;;;;;;;-148.16;100.00;58328.31;5058803;28;20801;-61
2022/01/12 07:13:45;;;;;;;20.98;8.48;;;;;;;-148.16;100.00;58328.31;5099291;28;20044;-60
2022/01/12 07:16:31;;;;;;;24.40;9.23;;;;;;;-148.16;100.00;58328.31;5069732;28;20052;-66
2022/01/12 07:19:16;;;;;;;19.65;8.45;;;;;;;-148.16;100.00;58328.31;5083292;28;20044;-60
2022/01/12 07:22:03;;;;;;;24.75;8.95;;;;;;;-148.16;100.00;58328.31;5071096;28;20044;-61
2022/01/12 07:24:49;;;;;;;27.65;9.38;;;;;;;-148.16;100.00;58328.31;5082119;28;20402;-61
2022/01/12 07:27:35;;;;;;;25.70;9.50;;;;;;;-148.16;100.00;58328.31;5078471;28;20040;-64
2022/01/12 07:30:22;;;;;;;21.38;8.02;;;;;;;-148.16;100.00;58328.31;5086611;28;20405;-60
2022/01/12 07:33:08;;;;;;;22.02;8.48;;;;;;;-148.16;100.00;58328.31;5080970;28;20040;-63
2022/01/12 07:35:54;;;;;;;24.20;8.77;;;;;;;-148.16;100.00;58328.31;5061948;28;20404;-62
2022/01/12 07:38:40;;;;;;;21.67;9.20;;;;;;;-148.16;100.00;58328.31;5080676;28;20040;-64
2022/01/12 07:41:25;;;;;;;21.70;9.20;;;;;;;-148.16;100.00;58328.31;5065640;28;20031;-62
2022/01/12 07:44:11;;;;;;;24.05;9.95;;;;;;;-148.16;100.00;58328.31;5078081;28;20048;-60
2022/01/12 07:46:57;;;;;;;23.25;9.63;;;;;;;-148.16;100.00;58328.31;5077632;28;20049;-66
2022/01/12 07:49:43;;;;;;;28.67;10.82;;;;;;;-148.16;100.00;58328.31;5063546;28;20408;-61
2022/01/12 07:52:30;;;;;;;22.02;9.02;;;;;;;-148.16;100.00;58328.31;5078558;28;20048;-59
2022/01/12 07:55:15;;;;;;;21.67;9.77;;;;;;;-148.16;100.00;58328.31;5078431;28;20044;-64
2022/01/12 07:58:01;;;;;;;20.73;8.73;;;;;;;-148.16;100.00;58328.31;5089233;28;20056;-62
2022/01/12 08:00:47;;;;;;;22.65;8.50;;;;;;;-148.16;100.00;58328.31;5093091;28;20048;-65
2022/01/12 08:03:33;;;;;;;26.88;10.40;;;;;;;-148.16;100.00;58328.31;5074574;28;20044;-61
2022/01/12 08:06:25;;;;;;;24.35;9.10;;;;;;;-148.16;100.00;58328.31;5077794;28;20052;-61
2022/01/12 08:09:10;;;;;;;;;;;;;;;-148.16;100.00;58328.31;5090307;28;20044;-62
2022/01/12 08:11:55;;;;;;;16.10;7.53;;;;;;;-148.16;100.00;58328.31;5083517;28;19915;-65
2022/01/12 08:14:41;;;;;;;19.80;8.95;;;;;;;-148.16;100.00;58328.31;5092466;28;20048;-64
2022/01/12 08:17:27;;;;;;;18.38;8.88;;;;;;;-148.16;100.00;58328.31;5093498;28;20047;-65
2022/01/12 08:20:18;;;;;;;18.60;8.52;;;;;;;-148.16;100.00;58328.31;5093265;28;20043;-63
2022/01/12 08:23:03;;;;;;;20.63;8.52;;;;;;;-148.16;100.00;58328.31;5077410;28;20396;-62
2022/01/12 08:25:49;;;;;;;23.60;10.23;;;;;;;-148.16;100.00;58328.31;5092523;28;20044;-62
2022/01/12 08:28:36;;;;;;;22.10;9.32;;;;;;;-148.16;100.00;58328.31;5092823;28;20044;-64
2022/01/12 08:31:22;;;;;;;22.75;9.48;;;;;;;-148.16;100.00;58328.31;5083552;28;20048;-60
2022/01/12 08:34:09;;;;;;;22.65;8.68;;;;;;;-148.16;100.00;58328.31;5092740;28;20391;-60
2022/01/12 08:36:55;;;;;;;23.45;9.63;;;;;;;-148.16;100.00;58328.31;5077562;28;20407;-63
2022/01/12 08:39:41;;;;;;;18.40;8.65;;;;;;;-148.16;100.00;58328.31;5092876;28;20407;-63
2022/01/12 08:42:27;;;;;;;22.80;8.60;;;;;;;-148.16;100.00;58328.31;5074631;28;20037;-62
2022/01/12 08:45:12;;;;;;;19.23;9.00;;;;;;;-148.16;100.00;58328.31;5072495;28;20049;-63
2022/01/12 08:47:59;;;;;;;26.30;10.50;;;;;;;-148.16;100.00;58328.31;5072503;28;20484;-63
2022/01/12 08:50:44;;;;;;;22.25;10.63;;;;;;;-148.16;100.00;58328.31;5078516;28;20048;-46
2022/01/12 08:53:30;;;;;;;30.05;16.55;;;;;;;-148.16;100.00;58328.31;5063332;28;20052;-64
2022/01/12 08:56:16;;;;;;;19.80;9.13;;;;;;;-148.16;100.00;58328.31;5063033;28;20045;-63
2022/01/12 08:59:02;;;;;;;24.98;12.45;;;;;;;-148.16;100.00;58328.31;5057214;28;20057;-63
2022/01/12 09:01:48;;;;;;;25.55;11.73;;;;;;;-148.16;100.00;58328.31;5049108;28;20048;-63
2022/01/12 09:04:34;;;;;;;24.83;10.45;;;;;;;-148.16;100.00;58328.31;5085455;28;20041;-63
2022/01/12 09:07:20;;;;;;;21.88;10.85;;;;;;;-148.16;100.00;58328.31;5074413;28;20049;-49
2022/01/12 09:10:07;;;;;;;24.95;10.40;;;;;;;-148.16;100.00;58328.31;5073185;28;20045;-64
2022/01/12 09:12:52;;;;;;;22.52;9.68;;;;;;;-148.16;100.00;58328.31;5076582;28;20041;-64
2022/01/12 09:15:38;;;;;;;21.15;10.27;;;;;;;-148.16;100.00;58328.31;5061358;28;20048;-65
2022/01/12 09:18:24;;;;;;;17.52;9.13;;;;;;;-148.16;100.00;58328.31;5076443;28;20048;-63
2022/01/12 09:21:10;;;;;;;25.73;10.23;;;;;;;-148.16;100.00;58328.31;5076211;28;20045;-62
2022/01/12 09:23:56;;;;;;;20.55;9.27;;;;;;;-148.16;100.00;58328.31;5076233;28;20415;-63
2022/01/12 09:26:42;;;;;;;24.15;8.70;;;;;;;-148.16;100.00;58328.31;5061324;28;20052;-61
2022/01/12 09:29:28;;;;;;;22.15;9.00;;;;;;;-148.16;100.00;58328.31;5076048;28;20044;-63
2022/01/12 09:32:15;;;;;;;23.67;9.73;;;;;;;-148.16;100.00;58328.31;5082153;28;20036;-64
2022/01/12 09:35:00;;;;;;;21.35;10.13;;;;;;;-148.16;100.00;58328.31;5083877;28;20040;-62
2022/01/12 09:37:46;;;;;;;22.67;8.85;;;;;;;-148.16;100.00;58328.31;5096123;28;20047;-61
2022/01/12 09:40:32;;;;;;;23.55;9.20;;;;;;;-148.16;100.00;58328.31;5096112;28;20044;-62
2022/01/12 09:43:18;;;;;;;18.95;8.68;;;;;;;-148.16;100.00;58328.31;5066660;28;20407;-62
2022/01/12 09:46:04;;;;;;;23.23;9.80;;;;;;;-148.16;100.00;58328.31;5081009;28;20406;-61
2022/01/12 09:48:50;;;;;;;21.05;8.90;;;;;;;-148.16;100.00;58328.31;5080734;28;20036;-62
2022/01/12 09:51:36;;;;;;;22.92;9.07;;;;;;;-148.16;100.00;58328.31;5086525;28;20040;-62
2022/01/12 09:54:24;;;;;;;23.40;9.00;;;;;;;-148.16;100.00;58328.31;5096108;28;20040;-63
2022/01/12 09:57:10;;;;;;;22.10;9.57;;;;;;;-148.16;100.00;58328.31;5080803;28;20051;-61
2022/01/12 09:59:56;;;;;;;22.48;8.55;;;;;;;-148.16;100.00;58328.31;5086475;28;20051;-61
2022/01/12 10:02:43;;;;;;;19.73;8.90;;;;;;;-148.16;100.00;58328.31;5096040;28;20043;-61
2022/01/12 10:05:31;;;;;;;21.98;8.50;;;;;;;-148.16;100.00;58328.31;5096362;28;20040;-62
2022/01/12 10:08:17;;;;;;;21.27;8.32;;;;;;;-148.16;100.00;58328.31;5096088;28;20044;-62
2022/01/12 10:11:05;;;;;;;19.80;8.80;;;;;;;-148.16;100.00;58328.31;5095503;28;20044;-63
2022/01/12 10:13:57;;;;;;;20.08;7.78;;;;;;;-148.16;100.00;58328.31;5080502;28;20056;-63
2022/01/12 10:16:54;;;;;;;18.40;8.52;;;;;;;-148.16;100.00;58328.31;5095922;28;20052;-62
2022/01/12 10:19:40;;;;;;;19.23;9.23;;;;;;;-148.16;100.00;58328.31;5086317;28;20055;-62
2022/01/12 10:22:26;;;;;;;24.70;8.15;;;;;;;-148.16;100.00;58328.31;5079876;28;20044;-62
2022/01/12 10:25:18;;;;;;;21.95;8.13;;;;;;;-148.16;100.00;58328.31;5101531;28;20489;-63
2022/01/12 10:28:14;;;;;;;19.85;8.20;;;;;;;-148.16;100.00;58328.31;5079781;28;20052;-62
2022/01/12 10:31:01;;;;;;;20.98;8.43;;;;;;;-148.16;100.00;58328.31;5071943;28;20040;-62
2022/01/12 10:33:47;;;;;;;20.10;8.18;;;;;;;-148.16;100.00;58328.31;5079829;28;20483;-62
2022/01/12 10:36:40;;;;;;;18.23;7.68;;;;;;;-148.16;100.00;58328.31;5094922;28;20044;-62
2022/01/12 10:39:29;;;;;;;19.70;7.88;;;;;;;-148.16;100.00;58328.31;5071415;28;20048;-62
2022/01/12 10:42:19;;;;;;;18.48;6.78;;;;;;;-148.16;100.00;58328.31;5063592;28;20040;-67
2022/01/12 10:45:06;;;;;;;18.60;6.75;;;;;;;-148.16;100.00;58328.31;5100207;28;20043;-63
2022/01/12 10:47:59;;;;;;;20.35;7.47;;;;;;;-148.16;100.00;58328.31;5068378;28;20040;-66
2022/01/12 10:50:59;;;;;;;16.70;7.50;;;;;;;-148.16;100.00;58328.31;5079824;28;20499;-64
2022/01/12 10:53:45;;;;;;;17.35;6.88;;;;;;;-148.16;100.00;58328.31;5096256;28;20406;-70
2022/01/12 10:56:31;;;;;;;16.92;7.78;;;;;;;-148.16;100.00;58328.31;5101715;28;20048;-64
2022/01/12 10:59:18;;;;;;;19.73;7.10;;;;;;;-148.16;100.00;58328.31;5080999;28;20047;-62
2022/01/12 11:02:04;;;;;;;17.33;8.00;;;;;;;-148.16;100.00;58328.31;5078528;28;20040;-62
2022/01/12 11:04:50;;;;;;;18.20;7.47;;;;;;;-148.16;100.00;58328.31;5096449;28;20048;-61
2022/01/12 11:07:36;;;;;;;19.77;7.43;;;;;;;-148.16;100.00;58328.31;5099396;28;20043;-62
2022/01/12 11:10:23;;;;;;;19.42;8.23;;;;;;;-148.16;100.00;58328.31;5105321;28;20414;-60
2022/01/12 11:13:10;;;;;;;16.17;6.63;;;;;;;-148.16;100.00;58328.31;5105374;28;20048;-62
2022/01/12 11:15:56;;;;;;;17.05;6.93;;;;;;;-148.16;100.00;58328.31;5091787;28;20471;-61
2022/01/12 11:18:42;;;;;;;18.75;7.65;;;;;;;-148.16;100.00;58328.31;5073067;28;20044;-60
2022/01/12 11:21:41;;;;;;;16.92;6.90;;;;;;;-148.16;100.00;58328.31;5074362;28;20049;-61
2022/01/12 11:24:28;;;;;;;19.48;7.32;;;;;;;-148.16;100.00;58328.31;5064674;28;20040;-61
2022/01/12 11:27:22;;;;;;;18.27;7.18;;;;;;;-148.16;100.00;58328.31;5086719;28;20394;-62
2022/01/12 11:30:22;;;;;;;20.50;7.55;;;;;;;-148.16;100.00;58328.31;5114593;28;20043;-62
2022/01/12 11:33:10;;;;;;;18.90;7.97;;;;;;;-148.16;100.00;58328.31;5098667;28;20459;-62
2022/01/12 11:35:59;;;;;;;15.98;7.78;;;;;;;-148.16;100.00;58328.31;5098450;28;20044;-61
2022/01/12 11:38:58;;;;;;;21.05;7.75;;;;;;;-148.16;100.00;58328.31;5064515;28;20044;-61
2022/01/12 11:41:48;;;;;;;17.30;6.95;;;;;;;-148.16;100.00;58328.31;5058462;28;20041;-62
2022/01/12 11:44:38;;;;;;;17.63;6.43;;;;;;;-148.16;100.00;58328.31;5074093;28;20492;-62
2022/01/12 11:47:27;;;;;;;21.25;8.02;;;;;;;-148.16;100.00;58328.31;5073720;28;20483;-61
2022/01/12 11:50:13;;;;;;;18.40;7.18;;;;;;;-148.16;100.00;58328.31;5113222;28;20114;-65
2022/01/12 11:52:59;;;;;;;17.60;7.22;;;;;;;-148.16;100.00;58328.31;5119850;28;20039;-62
2022/01/12 11:55:44;;;;;;;17.70;6.72;;;;;;;-148.16;100.00;58328.31;5103971;28;20044;-61
2022/01/12 11:58:30;;;;;;;16.98;7.75;;;;;;;-148.16;100.00;58328.31;5113429;28;20043;-61
2022/01/12 12:01:16;;;;;;;19.75;7.63;;;;;;;-148.16;100.00;58328.31;5113950;28;20047;-62
2022/01/12 12:04:05;;;;;;;16.40;7.75;;;;;;;-148.16;100.00;58328.31;5113653;28;20043;-63
2022/01/12 12:07:14;;;;;;;15.38;7.65;;;;;;;-148.16;100.00;58328.31;5094289;28;20052;-79
2022/01/12 12:10:10;;;;;;;14.27;7.13;;;;;;;-148.16;100.00;58328.31;5096649;28;20048;-78
2022/01/12 12:12:57;;;;;;;14.48;7.28;;;;;;;-148.16;100.00;58328.31;5080349;28;20048;-77
2022/01/12 12:15:43;;;;;;;17.27;7.03;;;;;;;-148.16;100.00;58328.31;5083030;28;20052;-61
2022/01/12 12:18:29;;;;;;;18.80;7.60;;;;;;;-148.16;100.00;58328.31;5093007;28;20051;-61
2022/01/12 12:21:16;;;;;;;16.65;6.78;;;;;;;-148.16;100.00;58328.31;5093103;28;20131;-62
2022/01/12 12:24:10;;;;;;;19.25;6.40;;;;;;;-148.16;100.00;58328.31;5093426;28;20040;-60
2022/01/12 12:26:57;;;;;;;18.15;8.40;;;;;;;-148.16;100.00;58328.31;5093160;28;20399;-60
2022/01/12 12:29:44;;;;;;;14.25;7.00;;;;;;;-148.16;100.00;58328.31;5093020;28;20040;-62
2022/01/12 12:32:37;;;;;;;16.70;6.88;;;;;;;-148.16;100.00;58328.31;5077792;28;20040;-61
2022/01/12 12:35:28;;;;;;;19.63;7.45;;;;;;;-148.16;100.00;58328.31;5083475;28;20040;-61
2022/01/12 12:38:16;;;;;;;14.93;6.70;;;;;;;-148.16;100.00;58328.31;5077717;28;20070;-62
2022/01/12 12:41:02;;;;;;;14.15;5.88;;;;;;;-148.16;100.00;58328.31;5092796;28;20495;-63
2022/01/12 12:43:48;;;;;;;13.20;6.55;;;;;;;-148.16;100.00;58328.31;5092330;28;20399;-52
2022/01/12 12:46:34;;;;;;;15.18;6.55;;;;;;;-148.16;100.00;58328.31;5091625;28;20048;-68
2022/01/12 12:49:20;;;;;;;17.15;6.47;;;;;;;-148.16;100.00;58328.31;5066366;28;20044;-67
2022/01/12 12:52:06;;;;;;;16.17;7.30;;;;;;;-148.16;100.00;58328.31;5090743;28;20039;-67
2022/01/12 12:54:53;;;;;;;14.52;6.57;;;;;;;-148.16;100.00;58328.31;5075648;28;20084;-66
2022/01/12 12:57:53;;;;;;;14.07;7.03;;;;;;;-148.16;100.00;58328.31;5091090;28;20044;-68
2022/01/12 13:00:38;;;;;;;15.65;7.10;;;;;;;-148.16;100.00;58328.31;5090536;28;20048;-67
2022/01/12 13:03:24;;;;;;;16.60;6.18;;;;;;;-148.16;100.00;58328.31;5068926;28;20082;-66
2022/01/12 13:06:27;;;;;;;17.83;7.60;;;;;;;-148.16;100.00;58328.31;5092522;28;20040;-67
2022/01/12 13:09:13;;;;;;;16.30;6.88;;;;;;;-148.16;100.00;58328.31;5077251;28;20044;-67
2022/01/12 13:12:00;;;;;;;17.30;6.88;;;;;;;-148.16;100.00;58328.31;5077191;28;20040;-67
2022/01/12 13:14:47;;;;;;;16.40;6.40;;;;;;;-148.16;100.00;58328.31;5092817;28;20044;-67
2022/01/12 13:17:33;;;;;;;17.98;7.47;;;;;;;-148.16;100.00;58328.31;5083354;28;20048;-66
2022/01/12 13:23:08;;;;;;;19.40;7.00;;;;;;;-148.16;100.00;58328.31;5092282;28;20036;-66
2022/01/12 13:25:56;;;;;;;20.00;7.13;;;;;;;-148.16;100.00;58328.31;5091362;28;20408;-69
2022/01/12 13:28:45;;;;;;;24.55;8.52;;;;;;;-148.16;100.00;58328.31;5072201;28;20116;-62
2022/01/12 13:31:30;;;;;;;21.55;8.57;;;;;;;-148.16;100.00;58328.31;5071626;28;20053;-65
2022/01/12 13:34:19;;;;;;;17.13;7.35;;;;;;;-148.16;100.00;58328.31;5050734;28;20044;-65
2022/01/12 13:37:04;;;;;;;20.33;9.00;;;;;;;-148.16;100.00;58328.31;5092650;28;20048;-65
2022/01/12 13:40:10;;;;;;;26.80;9.70;;;;;;;-148.16;100.00;58328.31;5083130;28;20048;-64
2022/01/12 13:42:59;;;;;;;19.48;8.02;;;;;;;-148.16;100.00;58328.31;5092242;28;20040;-64
2022/01/12 13:45:48;;;;;;;22.27;8.93;;;;;;;-148.16;100.00;58328.31;5076816;28;20048;-65
2022/01/12 13:48:34;;;;;;;17.55;7.32;;;;;;;-148.16;100.00;58328.31;5076342;28;20049;-65